Canal Winchester, Ohio
Current Conditions -  °F | °C
As of 2:35 AM on Saturday 25 Oct 2014 (Local Time) from KLCK Reporting Station
Clear Clear  
Wind Chill: 44°   Ceiling: Unl
Heat Index: 44°   Visibility: 10mi
Dew Point: 38°   Wind: 3mph
Humidity: 80%   Direction: 190°S
Pressure: 30.01"   Gusts: NA
Location:  39.85°N, 82.82°W
Report Text: KLCK 250635Z AUTO 19003KT 10SM CLR 07/04 A3001 RMK AO2 T00690036
Loading
Personal Weather Stations






























Interactive Weather Map
Tropical Storm Tracking
New forecast layout! Learn more

10-Day Weather Forecast

Advertisements
Track Severe Weather on mobile